sensor_id;sensor_type;location;lat;lon;timestamp;P1;durP1;ratioP1;P2;durP2;ratioP2
27925;SDS011;15267;47.838;12.128;2023-03-14T00:00:56;6.43;;;1.60;;
27925;SDS011;15267;47.838;12.128;2023-03-14T00:03:22;5.47;;;1.60;;
27925;SDS011;15267;47.838;12.128;2023-03-14T00:05:48;2.50;;;1.63;;
27925;SDS011;15267;47.838;12.128;2023-03-14T00:08:14;3.20;;;1.60;;
27925;SDS011;15267;47.838;12.128;2023-03-14T00:10:40;4.35;;;1.65;;
27925;SDS011;15267;47.838;12.128;2023-03-14T00:13:06;2.38;;;1.45;;
27925;SDS011;15267;47.838;12.128;2023-03-14T00:15:35;2.88;;;1.40;;
27925;SDS011;15267;47.838;12.128;2023-03-14T00:18:01;3.45;;;1.23;;
27925;SDS011;15267;47.838;12.128;2023-03-14T00:20:27;2.28;;;1.45;;
27925;SDS011;15267;47.838;12.128;2023-03-14T00:22:53;2.75;;;1.30;;
27925;SDS011;15267;47.838;12.128;2023-03-14T00:25:19;5.35;;;1.45;;
27925;SDS011;15267;47.838;12.128;2023-03-14T00:27:45;2.97;;;1.30;;
27925;SDS011;15267;47.838;12.128;2023-03-14T00:30:11;3.50;;;1.60;;
27925;SDS011;15267;47.838;12.128;2023-03-14T00:32:37;3.85;;;1.30;;
27925;SDS011;15267;47.838;12.128;2023-03-14T00:35:03;3.60;;;1.50;;
27925;SDS011;15267;47.838;12.128;2023-03-14T00:37:29;3.92;;;1.35;;
27925;SDS011;15267;47.838;12.128;2023-03-14T00:39:55;3.08;;;1.25;;
27925;SDS011;15267;47.838;12.128;2023-03-14T00:42:23;6.03;;;1.50;;
27925;SDS011;15267;47.838;12.128;2023-03-14T00:44:49;3.45;;;1.40;;
27925;SDS011;15267;47.838;12.128;2023-03-14T00:47:15;2.55;;;1.40;;
27925;SDS011;15267;47.838;12.128;2023-03-14T00:49:41;5.07;;;1.60;;
27925;SDS011;15267;47.838;12.128;2023-03-14T00:52:08;2.75;;;1.60;;
27925;SDS011;15267;47.838;12.128;2023-03-14T00:54:34;3.88;;;1.52;;
27925;SDS011;15267;47.838;12.128;2023-03-14T00:57:00;2.58;;;1.67;;
27925;SDS011;15267;47.838;12.128;2023-03-14T00:59:26;2.22;;;1.60;;
27925;SDS011;15267;47.838;12.128;2023-03-14T01:01:52;2.05;;;1.40;;
27925;SDS011;15267;47.838;12.128;2023-03-14T01:04:18;4.47;;;1.65;;
27925;SDS011;15267;47.838;12.128;2023-03-14T01:06:44;2.95;;;1.40;;
27925;SDS011;15267;47.838;12.128;2023-03-14T01:09:10;1.92;;;1.40;;
27925;SDS011;15267;47.838;12.128;2023-03-14T01:11:36;4.45;;;1.67;;
27925;SDS011;15267;47.838;12.128;2023-03-14T01:14:02;2.08;;;1.40;;
27925;SDS011;15267;47.838;12.128;2023-03-14T01:16:30;4.05;;;1.70;;
27925;SDS011;15267;47.838;12.128;2023-03-14T01:18:56;2.38;;;1.60;;
27925;SDS011;15267;47.838;12.128;2023-03-14T01:21:23;2.80;;;1.70;;
27925;SDS011;15267;47.838;12.128;2023-03-14T01:23:50;2.97;;;1.52;;
27925;SDS011;15267;47.838;12.128;2023-03-14T01:26:17;2.17;;;1.70;;
27925;SDS011;15267;47.838;12.128;2023-03-14T01:28:44;1.95;;;1.60;;
27925;SDS011;15267;47.838;12.128;2023-03-14T01:31:10;3.80;;;1.50;;
27925;SDS011;15267;47.838;12.128;2023-03-14T01:33:37;2.58;;;1.73;;
27925;SDS011;15267;47.838;12.128;2023-03-14T01:36:03;2.65;;;1.60;;
27925;SDS011;15267;47.838;12.128;2023-03-14T01:38:30;3.80;;;1.50;;
27925;SDS011;15267;47.838;12.128;2023-03-14T01:40:56;1.83;;;1.60;;
27925;SDS011;15267;47.838;12.128;2023-03-14T01:43:22;2.00;;;1.40;;
27925;SDS011;15267;47.838;12.128;2023-03-14T01:46:02;4.28;;;1.88;;
27925;SDS011;15267;47.838;12.128;2023-03-14T01:48:39;3.63;;;1.80;;
27925;SDS011;15267;47.838;12.128;2023-03-14T01:51:06;2.65;;;1.80;;
27925;SDS011;15267;47.838;12.128;2023-03-14T01:53:35;3.03;;;1.85;;
27925;SDS011;15267;47.838;12.128;2023-03-14T01:56:02;4.38;;;1.95;;
27925;SDS011;15267;47.838;12.128;2023-03-14T01:58:28;3.03;;;1.85;;
27925;SDS011;15267;47.838;12.128;2023-03-14T02:00:57;4.53;;;2.17;;
27925;SDS011;15267;47.838;12.128;2023-03-14T02:03:24;3.67;;;1.90;;
27925;SDS011;15267;47.838;12.128;2023-03-14T02:05:51;3.05;;;1.92;;
27925;SDS011;15267;47.838;12.128;2023-03-14T02:08:19;3.38;;;1.80;;
27925;SDS011;15267;47.838;12.128;2023-03-14T02:10:47;6.55;;;2.28;;
27925;SDS011;15267;47.838;12.128;2023-03-14T02:13:14;2.92;;;2.10;;
27925;SDS011;15267;47.838;12.128;2023-03-14T02:15:40;3.92;;;2.42;;
27925;SDS011;15267;47.838;12.128;2023-03-14T02:18:06;5.82;;;2.20;;
27925;SDS011;15267;47.838;12.128;2023-03-14T02:23:08;4.15;;;2.03;;
27925;SDS011;15267;47.838;12.128;2023-03-14T02:28:00;4.75;;;1.70;;
27925;SDS011;15267;47.838;12.128;2023-03-14T02:30:27;7.18;;;1.65;;
27925;SDS011;15267;47.838;12.128;2023-03-14T02:32:54;2.55;;;1.50;;
27925;SDS011;15267;47.838;12.128;2023-03-14T02:35:22;3.70;;;1.80;;
27925;SDS011;15267;47.838;12.128;2023-03-14T02:37:55;5.70;;;1.63;;
27925;SDS011;15267;47.838;12.128;2023-03-14T02:40:23;2.72;;;1.30;;
27925;SDS011;15267;47.838;12.128;2023-03-14T02:42:49;4.20;;;1.75;;
27925;SDS011;15267;47.838;12.128;2023-03-14T02:47:42;6.43;;;1.88;;
27925;SDS011;15267;47.838;12.128;2023-03-14T02:50:10;3.05;;;1.80;;
27925;SDS011;15267;47.838;12.128;2023-03-14T02:52:38;3.20;;;1.30;;
27925;SDS011;15267;47.838;12.128;2023-03-14T02:55:04;1.92;;;1.20;;
27925;SDS011;15267;47.838;12.128;2023-03-14T02:57:30;2.97;;;1.15;;
27925;SDS011;15267;47.838;12.128;2023-03-14T03:00:00;2.78;;;0.88;;
27925;SDS011;15267;47.838;12.128;2023-03-14T03:02:26;1.52;;;1.00;;
27925;SDS011;15267;47.838;12.128;2023-03-14T03:04:52;2.58;;;1.10;;
27925;SDS011;15267;47.838;12.128;2023-03-14T03:07:18;3.08;;;1.00;;
27925;SDS011;15267;47.838;12.128;2023-03-14T03:09:44;1.73;;;0.90;;
27925;SDS011;15267;47.838;12.128;2023-03-14T03:12:10;1.60;;;1.00;;
27925;SDS011;15267;47.838;12.128;2023-03-14T03:14:36;1.85;;;0.95;;
27925;SDS011;15267;47.838;12.128;2023-03-14T03:17:03;1.65;;;1.15;;
27925;SDS011;15267;47.838;12.128;2023-03-14T03:19:30;2.22;;;1.30;;
27925;SDS011;15267;47.838;12.128;2023-03-14T03:21:56;1.38;;;0.95;;
27925;SDS011;15267;47.838;12.128;2023-03-14T03:24:22;2.92;;;1.50;;
27925;SDS011;15267;47.838;12.128;2023-03-14T03:26:48;3.38;;;1.30;;
27925;SDS011;15267;47.838;12.128;2023-03-14T03:29:14;3.05;;;1.35;;
27925;SDS011;15267;47.838;12.128;2023-03-14T03:31:40;1.80;;;1.23;;
27925;SDS011;15267;47.838;12.128;2023-03-14T03:34:06;3.15;;;1.30;;
27925;SDS011;15267;47.838;12.128;2023-03-14T03:36:32;1.27;;;0.85;;
27925;SDS011;15267;47.838;12.128;2023-03-14T03:38:58;1.35;;;0.60;;
27925;SDS011;15267;47.838;12.128;2023-03-14T03:41:24;1.17;;;0.60;;
27925;SDS011;15267;47.838;12.128;2023-03-14T03:43:50;1.08;;;0.50;;
27925;SDS011;15267;47.838;12.128;2023-03-14T03:46:16;0.40;;;0.40;;
27925;SDS011;15267;47.838;12.128;2023-03-14T03:48:42;1.52;;;0.50;;
27925;SDS011;15267;47.838;12.128;2023-03-14T03:51:12;0.80;;;0.40;;
27925;SDS011;15267;47.838;12.128;2023-03-14T03:53:38;0.73;;;0.40;;
27925;SDS011;15267;47.838;12.128;2023-03-14T03:56:04;0.45;;;0.30;;
27925;SDS011;15267;47.838;12.128;2023-03-14T03:58:30;0.98;;;0.43;;
27925;SDS011;15267;47.838;12.128;2023-03-14T04:00:56;1.02;;;0.30;;
27925;SDS011;15267;47.838;12.128;2023-03-14T04:03:22;1.50;;;0.30;;
27925;SDS011;15267;47.838;12.128;2023-03-14T04:06:01;2.17;;;0.30;;
27925;SDS011;15267;47.838;12.128;2023-03-14T04:08:27;1.05;;;0.38;;
27925;SDS011;15267;47.838;12.128;2023-03-14T04:10:55;2.40;;;0.57;;
27925;SDS011;15267;47.838;12.128;2023-03-14T04:13:21;3.75;;;0.30;;
27925;SDS011;15267;47.838;12.128;2023-03-14T04:15:47;0.82;;;0.38;;
27925;SDS011;15267;47.838;12.128;2023-03-14T04:18:13;3.38;;;0.45;;
27925;SDS011;15267;47.838;12.128;2023-03-14T04:20:39;0.88;;;0.40;;
27925;SDS011;15267;47.838;12.128;2023-03-14T04:23:05;1.05;;;0.55;;
27925;SDS011;15267;47.838;12.128;2023-03-14T04:25:31;1.92;;;0.40;;
27925;SDS011;15267;47.838;12.128;2023-03-14T04:27:56;1.33;;;0.50;;
27925;SDS011;15267;47.838;12.128;2023-03-14T04:30:22;0.30;;;0.30;;
27925;SDS011;15267;47.838;12.128;2023-03-14T04:32:48;1.33;;;0.30;;
27925;SDS011;15267;47.838;12.128;2023-03-14T04:35:14;0.88;;;0.30;;
27925;SDS011;15267;47.838;12.128;2023-03-14T04:37:40;0.30;;;0.30;;
27925;SDS011;15267;47.838;12.128;2023-03-14T04:40:08;0.20;;;0.20;;
27925;SDS011;15267;47.838;12.128;2023-03-14T04:42:34;2.28;;;0.30;;
27925;SDS011;15267;47.838;12.128;2023-03-14T04:45:00;0.77;;;0.30;;
27925;SDS011;15267;47.838;12.128;2023-03-14T04:47:26;1.98;;;0.30;;
27925;SDS011;15267;47.838;12.128;2023-03-14T04:49:52;2.05;;;0.40;;
27925;SDS011;15267;47.838;12.128;2023-03-14T04:52:18;0.73;;;0.43;;
27925;SDS011;15267;47.838;12.128;2023-03-14T04:54:44;2.50;;;0.60;;
27925;SDS011;15267;47.838;12.128;2023-03-14T04:57:10;2.13;;;0.70;;
27925;SDS011;15267;47.838;12.128;2023-03-14T04:59:36;3.75;;;0.65;;
27925;SDS011;15267;47.838;12.128;2023-03-14T05:02:02;1.80;;;0.50;;
27925;SDS011;15267;47.838;12.128;2023-03-14T05:04:27;2.35;;;0.60;;
27925;SDS011;15267;47.838;12.128;2023-03-14T05:06:54;1.48;;;0.80;;
27925;SDS011;15267;47.838;12.128;2023-03-14T05:09:20;1.10;;;0.40;;
27925;SDS011;15267;47.838;12.128;2023-03-14T05:11:46;4.43;;;0.55;;
27925;SDS011;15267;47.838;12.128;2023-03-14T05:14:12;3.50;;;0.80;;
27925;SDS011;15267;47.838;12.128;2023-03-14T05:16:38;1.17;;;0.52;;
27925;SDS011;15267;47.838;12.128;2023-03-14T05:19:04;4.03;;;0.70;;
27925;SDS011;15267;47.838;12.128;2023-03-14T05:21:30;1.55;;;0.60;;
27925;SDS011;15267;47.838;12.128;2023-03-14T05:23:56;3.13;;;0.88;;
27925;SDS011;15267;47.838;12.128;2023-03-14T05:26:22;3.45;;;0.70;;
27925;SDS011;15267;47.838;12.128;2023-03-14T05:28:48;1.63;;;0.63;;
27925;SDS011;15267;47.838;12.128;2023-03-14T05:31:14;7.03;;;3.78;;
27925;SDS011;15267;47.838;12.128;2023-03-14T05:33:40;4.80;;;2.58;;
27925;SDS011;15267;47.838;12.128;2023-03-14T05:36:06;4.05;;;1.88;;
27925;SDS011;15267;47.838;12.128;2023-03-14T05:38:32;3.55;;;1.25;;
27925;SDS011;15267;47.838;12.128;2023-03-14T05:40:59;2.35;;;1.10;;
27925;SDS011;15267;47.838;12.128;2023-03-14T05:43:24;1.70;;;0.98;;
27925;SDS011;15267;47.838;12.128;2023-03-14T05:45:50;0.88;;;0.60;;
27925;SDS011;15267;47.838;12.128;2023-03-14T05:48:16;2.88;;;0.70;;
27925;SDS011;15267;47.838;12.128;2023-03-14T05:50:43;1.75;;;0.60;;
27925;SDS011;15267;47.838;12.128;2023-03-14T05:53:09;1.52;;;0.60;;
27925;SDS011;15267;47.838;12.128;2023-03-14T05:55:35;2.28;;;0.50;;
27925;SDS011;15267;47.838;12.128;2023-03-14T05:58:01;2.15;;;0.70;;
27925;SDS011;15267;47.838;12.128;2023-03-14T06:00:27;1.67;;;0.60;;
27925;SDS011;15267;47.838;12.128;2023-03-14T06:02:52;2.22;;;0.77;;
27925;SDS011;15267;47.838;12.128;2023-03-14T06:05:18;1.65;;;0.60;;
27925;SDS011;15267;47.838;12.128;2023-03-14T06:07:44;2.58;;;0.80;;
27925;SDS011;15267;47.838;12.128;2023-03-14T06:10:10;1.33;;;0.65;;
27925;SDS011;15267;47.838;12.128;2023-03-14T06:12:36;1.02;;;0.50;;
27925;SDS011;15267;47.838;12.128;2023-03-14T06:15:02;1.25;;;0.60;;
27925;SDS011;15267;47.838;12.128;2023-03-14T06:17:28;1.00;;;0.30;;
27925;SDS011;15267;47.838;12.128;2023-03-14T06:19:54;0.60;;;0.50;;
27925;SDS011;15267;47.838;12.128;2023-03-14T06:22:20;1.75;;;0.40;;
27925;SDS011;15267;47.838;12.128;2023-03-14T06:24:46;0.55;;;0.30;;
27925;SDS011;15267;47.838;12.128;2023-03-14T06:27:12;1.95;;;0.52;;
27925;SDS011;15267;47.838;12.128;2023-03-14T06:29:38;1.52;;;0.35;;
27925;SDS011;15267;47.838;12.128;2023-03-14T06:32:04;0.35;;;0.35;;
27925;SDS011;15267;47.838;12.128;2023-03-14T06:34:30;1.27;;;0.30;;
27925;SDS011;15267;47.838;12.128;2023-03-14T06:36:56;0.82;;;0.40;;
27925;SDS011;15267;47.838;12.128;2023-03-14T06:39:22;0.63;;;0.35;;
27925;SDS011;15267;47.838;12.128;2023-03-14T06:41:48;1.05;;;0.50;;
27925;SDS011;15267;47.838;12.128;2023-03-14T06:44:14;0.52;;;0.30;;
27925;SDS011;15267;47.838;12.128;2023-03-14T06:46:39;1.95;;;0.40;;
27925;SDS011;15267;47.838;12.128;2023-03-14T06:49:05;0.35;;;0.30;;
27925;SDS011;15267;47.838;12.128;2023-03-14T06:51:31;0.50;;;0.40;;
27925;SDS011;15267;47.838;12.128;2023-03-14T06:53:57;0.50;;;0.40;;
27925;SDS011;15267;47.838;12.128;2023-03-14T06:56:23;0.95;;;0.40;;
27925;SDS011;15267;47.838;12.128;2023-03-14T06:58:49;1.13;;;1.02;;
27925;SDS011;15267;47.838;12.128;2023-03-14T07:01:17;1.20;;;1.00;;
27925;SDS011;15267;47.838;12.128;2023-03-14T07:03:45;0.68;;;0.40;;
27925;SDS011;15267;47.838;12.128;2023-03-14T07:06:11;1.08;;;0.60;;
27925;SDS011;15267;47.838;12.128;2023-03-14T07:08:37;3.35;;;0.75;;
27925;SDS011;15267;47.838;12.128;2023-03-14T07:11:04;2.72;;;0.60;;
27925;SDS011;15267;47.838;12.128;2023-03-14T07:13:30;1.63;;;0.73;;
27925;SDS011;15267;47.838;12.128;2023-03-14T07:15:56;1.20;;;0.77;;
27925;SDS011;15267;47.838;12.128;2023-03-14T07:18:22;0.60;;;0.40;;
27925;SDS011;15267;47.838;12.128;2023-03-14T07:20:48;3.05;;;0.57;;
27925;SDS011;15267;47.838;12.128;2023-03-14T07:23:14;1.27;;;0.80;;
27925;SDS011;15267;47.838;12.128;2023-03-14T07:25:40;2.33;;;0.80;;
27925;SDS011;15267;47.838;12.128;2023-03-14T07:28:05;1.23;;;1.00;;
27925;SDS011;15267;47.838;12.128;2023-03-14T07:30:32;0.70;;;0.60;;
27925;SDS011;15267;47.838;12.128;2023-03-14T07:32:57;1.20;;;0.80;;
27925;SDS011;15267;47.838;12.128;2023-03-14T07:35:23;1.85;;;0.95;;
27925;SDS011;15267;47.838;12.128;2023-03-14T07:37:49;2.50;;;0.68;;
27925;SDS011;15267;47.838;12.128;2023-03-14T07:40:15;1.65;;;0.65;;
27925;SDS011;15267;47.838;12.128;2023-03-14T07:42:42;0.93;;;0.80;;
27925;SDS011;15267;47.838;12.128;2023-03-14T07:45:08;2.03;;;0.80;;
27925;SDS011;15267;47.838;12.128;2023-03-14T07:47:34;3.15;;;0.90;;
27925;SDS011;15267;47.838;12.128;2023-03-14T07:50:00;2.35;;;1.10;;
27925;SDS011;15267;47.838;12.128;2023-03-14T07:52:27;2.53;;;0.93;;
27925;SDS011;15267;47.838;12.128;2023-03-14T07:54:53;1.55;;;1.10;;
27925;SDS011;15267;47.838;12.128;2023-03-14T07:57:18;1.30;;;1.00;;
27925;SDS011;15267;47.838;12.128;2023-03-14T07:59:44;2.03;;;1.20;;
27925;SDS011;15267;47.838;12.128;2023-03-14T08:02:11;2.63;;;0.95;;
27925;SDS011;15267;47.838;12.128;2023-03-14T08:04:38;1.38;;;0.90;;
27925;SDS011;15267;47.838;12.128;2023-03-14T08:07:04;2.17;;;0.98;;
27925;SDS011;15267;47.838;12.128;2023-03-14T08:09:30;1.45;;;0.82;;
27925;SDS011;15267;47.838;12.128;2023-03-14T08:11:56;2.72;;;0.93;;
27925;SDS011;15267;47.838;12.128;2023-03-14T08:14:22;3.25;;;1.15;;
27925;SDS011;15267;47.838;12.128;2023-03-14T08:16:51;5.55;;;0.95;;
27925;SDS011;15267;47.838;12.128;2023-03-14T08:19:17;1.10;;;0.80;;
27925;SDS011;15267;47.838;12.128;2023-03-14T08:21:43;2.58;;;0.80;;
27925;SDS011;15267;47.838;12.128;2023-03-14T08:24:09;0.82;;;0.70;;
27925;SDS011;15267;47.838;12.128;2023-03-14T08:26:35;1.63;;;1.10;;
27925;SDS011;15267;47.838;12.128;2023-03-14T08:29:01;2.10;;;0.90;;
27925;SDS011;15267;47.838;12.128;2023-03-14T08:31:29;1.90;;;0.70;;
27925;SDS011;15267;47.838;12.128;2023-03-14T08:33:58;1.27;;;0.90;;
27925;SDS011;15267;47.838;12.128;2023-03-14T08:36:24;1.02;;;0.50;;
27925;SDS011;15267;47.838;12.128;2023-03-14T08:38:50;0.85;;;0.50;;
27925;SDS011;15267;47.838;12.128;2023-03-14T08:41:16;2.63;;;0.70;;
27925;SDS011;15267;47.838;12.128;2023-03-14T08:43:42;2.17;;;1.40;;
27925;SDS011;15267;47.838;12.128;2023-03-14T08:46:08;1.13;;;0.60;;
27925;SDS011;15267;47.838;12.128;2023-03-14T08:48:34;1.17;;;0.70;;
27925;SDS011;15267;47.838;12.128;2023-03-14T08:51:10;1.13;;;0.80;;
27925;SDS011;15267;47.838;12.128;2023-03-14T08:53:37;1.75;;;0.60;;
27925;SDS011;15267;47.838;12.128;2023-03-14T08:56:03;2.65;;;0.90;;
27925;SDS011;15267;47.838;12.128;2023-03-14T08:58:31;1.88;;;0.73;;
27925;SDS011;15267;47.838;12.128;2023-03-14T09:00:57;1.35;;;0.90;;
27925;SDS011;15267;47.838;12.128;2023-03-14T09:03:23;2.70;;;1.08;;
27925;SDS011;15267;47.838;12.128;2023-03-14T09:05:49;1.48;;;0.80;;
27925;SDS011;15267;47.838;12.128;2023-03-14T09:08:15;1.73;;;0.80;;
27925;SDS011;15267;47.838;12.128;2023-03-14T09:10:41;1.63;;;0.90;;
27925;SDS011;15267;47.838;12.128;2023-03-14T09:13:07;1.13;;;0.60;;
27925;SDS011;15267;47.838;12.128;2023-03-14T09:15:33;1.00;;;0.70;;
27925;SDS011;15267;47.838;12.128;2023-03-14T09:17:59;3.08;;;0.70;;
27925;SDS011;15267;47.838;12.128;2023-03-14T09:20:25;1.38;;;0.57;;
27925;SDS011;15267;47.838;12.128;2023-03-14T09:22:51;0.85;;;0.50;;
27925;SDS011;15267;47.838;12.128;2023-03-14T09:25:17;1.55;;;0.60;;
27925;SDS011;15267;47.838;12.128;2023-03-14T09:27:43;0.50;;;0.30;;
27925;SDS011;15267;47.838;12.128;2023-03-14T09:30:09;0.68;;;0.68;;
27925;SDS011;15267;47.838;12.128;2023-03-14T09:32:36;1.55;;;0.70;;
27925;SDS011;15267;47.838;12.128;2023-03-14T09:35:02;1.20;;;0.60;;
27925;SDS011;15267;47.838;12.128;2023-03-14T09:37:28;1.10;;;0.90;;
27925;SDS011;15267;47.838;12.128;2023-03-14T09:39:54;1.73;;;0.75;;
27925;SDS011;15267;47.838;12.128;2023-03-14T09:42:23;0.52;;;0.52;;
27925;SDS011;15267;47.838;12.128;2023-03-14T09:44:59;1.45;;;0.60;;
27925;SDS011;15267;47.838;12.128;2023-03-14T09:47:26;1.00;;;0.80;;
27925;SDS011;15267;47.838;12.128;2023-03-14T09:49:52;1.08;;;0.65;;
27925;SDS011;15267;47.838;12.128;2023-03-14T09:52:25;1.45;;;0.80;;
27925;SDS011;15267;47.838;12.128;2023-03-14T09:54:53;1.13;;;0.50;;
27925;SDS011;15267;47.838;12.128;2023-03-14T09:57:21;0.88;;;0.50;;
27925;SDS011;15267;47.838;12.128;2023-03-14T09:59:49;1.10;;;0.60;;
27925;SDS011;15267;47.838;12.128;2023-03-14T10:02:20;0.50;;;0.40;;
27925;SDS011;15267;47.838;12.128;2023-03-14T10:04:47;0.85;;;0.68;;
27925;SDS011;15267;47.838;12.128;2023-03-14T10:07:14;2.92;;;2.00;;
27925;SDS011;15267;47.838;12.128;2023-03-14T10:09:45;1.70;;;1.02;;
27925;SDS011;15267;47.838;12.128;2023-03-14T10:12:11;1.65;;;0.90;;
27925;SDS011;15267;47.838;12.128;2023-03-14T10:14:37;1.63;;;0.80;;
27925;SDS011;15267;47.838;12.128;2023-03-14T10:17:11;1.50;;;1.10;;
27925;SDS011;15267;47.838;12.128;2023-03-14T10:19:50;1.25;;;0.68;;
27925;SDS011;15267;47.838;12.128;2023-03-14T10:22:16;2.22;;;0.60;;
27925;SDS011;15267;47.838;12.128;2023-03-14T10:24:46;3.60;;;0.60;;
27925;SDS011;15267;47.838;12.128;2023-03-14T10:27:19;0.80;;;0.55;;
27925;SDS011;15267;47.838;12.128;2023-03-14T10:29:53;2.08;;;0.70;;
27925;SDS011;15267;47.838;12.128;2023-03-14T10:32:20;1.17;;;0.82;;
27925;SDS011;15267;47.838;12.128;2023-03-14T10:35:03;0.85;;;0.57;;
27925;SDS011;15267;47.838;12.128;2023-03-14T10:37:29;0.98;;;0.70;;
27925;SDS011;15267;47.838;12.128;2023-03-14T10:39:58;1.10;;;0.70;;
27925;SDS011;15267;47.838;12.128;2023-03-14T10:42:30;0.68;;;0.68;;
27925;SDS011;15267;47.838;12.128;2023-03-14T10:45:00;0.70;;;0.70;;
27925;SDS011;15267;47.838;12.128;2023-03-14T10:47:26;2.58;;;0.95;;
27925;SDS011;15267;47.838;12.128;2023-03-14T10:49:53;0.70;;;0.63;;
27925;SDS011;15267;47.838;12.128;2023-03-14T10:52:20;2.10;;;0.85;;
27925;SDS011;15267;47.838;12.128;2023-03-14T10:55:03;0.77;;;0.77;;
27925;SDS011;15267;47.838;12.128;2023-03-14T10:57:38;1.35;;;0.82;;
27925;SDS011;15267;47.838;12.128;2023-03-14T11:00:05;2.40;;;1.30;;
27925;SDS011;15267;47.838;12.128;2023-03-14T11:08:02;0.98;;;0.82;;
27925;SDS011;15267;47.838;12.128;2023-03-14T11:10:33;1.77;;;0.80;;
27925;SDS011;15267;47.838;12.128;2023-03-14T11:20:33;0.80;;;0.70;;
27925;SDS011;15267;47.838;12.128;2023-03-14T11:23:09;0.60;;;0.50;;
27925;SDS011;15267;47.838;12.128;2023-03-14T11:28:17;0.82;;;0.50;;
27925;SDS011;15267;47.838;12.128;2023-03-14T11:30:54;0.77;;;0.40;;
27925;SDS011;15267;47.838;12.128;2023-03-14T11:33:45;0.45;;;0.30;;
27925;SDS011;15267;47.838;12.128;2023-03-14T11:36:15;0.90;;;0.30;;
27925;SDS011;15267;47.838;12.128;2023-03-14T11:41:10;0.52;;;0.45;;
27925;SDS011;15267;47.838;12.128;2023-03-14T11:43:38;0.73;;;0.50;;
27925;SDS011;15267;47.838;12.128;2023-03-14T11:46:13;0.50;;;0.47;;
27925;SDS011;15267;47.838;12.128;2023-03-14T11:51:10;0.85;;;0.40;;
27925;SDS011;15267;47.838;12.128;2023-03-14T11:53:47;0.50;;;0.50;;
27925;SDS011;15267;47.838;12.128;2023-03-14T11:56:19;0.50;;;0.50;;
27925;SDS011;15267;47.838;12.128;2023-03-14T12:01:14;0.40;;;0.40;;
27925;SDS011;15267;47.838;12.128;2023-03-14T12:06:35;0.20;;;0.20;;
27925;SDS011;15267;47.838;12.128;2023-03-14T12:09:05;0.30;;;0.30;;
27925;SDS011;15267;47.838;12.128;2023-03-14T12:14:21;0.20;;;0.20;;
27925;SDS011;15267;47.838;12.128;2023-03-14T12:16:47;2.55;;;2.35;;
27925;SDS011;15267;47.838;12.128;2023-03-14T12:19:15;0.82;;;0.38;;
27925;SDS011;15267;47.838;12.128;2023-03-14T12:21:51;0.40;;;0.30;;
27925;SDS011;15267;47.838;12.128;2023-03-14T12:24:18;1.65;;;0.35;;
27925;SDS011;15267;47.838;12.128;2023-03-14T12:26:57;0.40;;;0.30;;
27925;SDS011;15267;47.838;12.128;2023-03-14T12:29:23;0.30;;;0.30;;
27925;SDS011;15267;47.838;12.128;2023-03-14T12:32:07;0.40;;;0.30;;
27925;SDS011;15267;47.838;12.128;2023-03-14T12:34:34;0.40;;;0.40;;
27925;SDS011;15267;47.838;12.128;2023-03-14T12:42:21;0.40;;;0.40;;
27925;SDS011;15267;47.838;12.128;2023-03-14T12:44:50;2.15;;;0.60;;
27925;SDS011;15267;47.838;12.128;2023-03-14T12:49:42;0.40;;;0.30;;
27925;SDS011;15267;47.838;12.128;2023-03-14T12:52:13;0.55;;;0.30;;
27925;SDS011;15267;47.838;12.128;2023-03-14T12:59:35;0.30;;;0.30;;
27925;SDS011;15267;47.838;12.128;2023-03-14T13:04:34;2.45;;;1.67;;
27925;SDS011;15267;47.838;12.128;2023-03-14T13:07:01;1.00;;;0.30;;
27925;SDS011;15267;47.838;12.128;2023-03-14T13:12:07;0.40;;;0.40;;
27925;SDS011;15267;47.838;12.128;2023-03-14T13:14:34;0.35;;;0.35;;
27925;SDS011;15267;47.838;12.128;2023-03-14T13:17:01;0.30;;;0.30;;
27925;SDS011;15267;47.838;12.128;2023-03-14T13:19:28;0.30;;;0.30;;
27925;SDS011;15267;47.838;12.128;2023-03-14T13:22:03;0.47;;;0.40;;
27925;SDS011;15267;47.838;12.128;2023-03-14T13:24:32;0.85;;;0.50;;
27925;SDS011;15267;47.838;12.128;2023-03-14T13:26:59;0.40;;;0.30;;
27925;SDS011;15267;47.838;12.128;2023-03-14T13:29:25;1.85;;;0.43;;
27925;SDS011;15267;47.838;12.128;2023-03-14T13:31:53;0.60;;;0.50;;
27925;SDS011;15267;47.838;12.128;2023-03-14T13:34:19;0.63;;;0.40;;
27925;SDS011;15267;47.838;12.128;2023-03-14T13:36:46;1.67;;;0.52;;
27925;SDS011;15267;47.838;12.128;2023-03-14T13:39:22;1.95;;;0.57;;
27925;SDS011;15267;47.838;12.128;2023-03-14T13:41:50;1.70;;;0.63;;
27925;SDS011;15267;47.838;12.128;2023-03-14T13:44:39;3.13;;;1.00;;
27925;SDS011;15267;47.838;12.128;2023-03-14T13:47:04;1.02;;;0.80;;
27925;SDS011;15267;47.838;12.128;2023-03-14T13:49:31;3.53;;;0.80;;
27925;SDS011;15267;47.838;12.128;2023-03-14T13:52:00;1.70;;;1.00;;
27925;SDS011;15267;47.838;12.128;2023-03-14T13:54:26;0.50;;;0.40;;
27925;SDS011;15267;47.838;12.128;2023-03-14T13:57:02;1.33;;;0.88;;
27925;SDS011;15267;47.838;12.128;2023-03-14T13:59:33;1.90;;;1.00;;
27925;SDS011;15267;47.838;12.128;2023-03-14T14:02:00;1.65;;;1.10;;
27925;SDS011;15267;47.838;12.128;2023-03-14T14:04:28;2.33;;;1.20;;
27925;SDS011;15267;47.838;12.128;2023-03-14T14:06:58;2.40;;;0.70;;
27925;SDS011;15267;47.838;12.128;2023-03-14T14:09:35;1.02;;;0.80;;
27925;SDS011;15267;47.838;12.128;2023-03-14T14:12:12;3.35;;;1.00;;
27925;SDS011;15267;47.838;12.128;2023-03-14T14:14:47;1.42;;;0.47;;
27925;SDS011;15267;47.838;12.128;2023-03-14T14:17:16;0.88;;;0.30;;
27925;SDS011;15267;47.838;12.128;2023-03-14T14:19:43;0.20;;;0.20;;
27925;SDS011;15267;47.838;12.128;2023-03-14T14:22:10;0.20;;;0.20;;
27925;SDS011;15267;47.838;12.128;2023-03-14T14:24:36;0.50;;;0.30;;
27925;SDS011;15267;47.838;12.128;2023-03-14T14:27:19;0.25;;;0.25;;
27925;SDS011;15267;47.838;12.128;2023-03-14T14:30:00;0.40;;;0.40;;
27925;SDS011;15267;47.838;12.128;2023-03-14T14:32:27;1.25;;;0.50;;
27925;SDS011;15267;47.838;12.128;2023-03-14T14:35:00;0.75;;;0.40;;
27925;SDS011;15267;47.838;12.128;2023-03-14T14:37:30;0.75;;;0.30;;
27925;SDS011;15267;47.838;12.128;2023-03-14T14:40:43;0.45;;;0.22;;
27925;SDS011;15267;47.838;12.128;2023-03-14T14:42:47;0.70;;;0.40;;
27925;SDS011;15267;47.838;12.128;2023-03-14T14:45:18;0.30;;;0.30;;
27925;SDS011;15267;47.838;12.128;2023-03-14T14:47:54;0.28;;;0.20;;
27925;SDS011;15267;47.838;12.128;2023-03-14T14:50:26;0.28;;;0.28;;
27925;SDS011;15267;47.838;12.128;2023-03-14T14:52:56;0.33;;;0.33;;
27925;SDS011;15267;47.838;12.128;2023-03-14T14:55:22;0.30;;;0.30;;
27925;SDS011;15267;47.838;12.128;2023-03-14T14:57:55;0.20;;;0.20;;
27925;SDS011;15267;47.838;12.128;2023-03-14T15:00:22;0.20;;;0.20;;
27925;SDS011;15267;47.838;12.128;2023-03-14T15:02:49;1.33;;;0.28;;
27925;SDS011;15267;47.838;12.128;2023-03-14T15:05:24;0.75;;;0.30;;
27925;SDS011;15267;47.838;12.128;2023-03-14T15:07:51;0.30;;;0.30;;
27925;SDS011;15267;47.838;12.128;2023-03-14T15:10:21;0.20;;;0.20;;
27925;SDS011;15267;47.838;12.128;2023-03-14T15:12:47;0.30;;;0.30;;
27925;SDS011;15267;47.838;12.128;2023-03-14T15:15:14;0.70;;;0.43;;
27925;SDS011;15267;47.838;12.128;2023-03-14T15:17:40;0.70;;;0.60;;
27925;SDS011;15267;47.838;12.128;2023-03-14T15:20:09;0.60;;;0.60;;
27925;SDS011;15267;47.838;12.128;2023-03-14T15:22:38;0.60;;;0.60;;
27925;SDS011;15267;47.838;12.128;2023-03-14T15:25:04;0.35;;;0.30;;
27925;SDS011;15267;47.838;12.128;2023-03-14T15:27:30;3.35;;;0.57;;
27925;SDS011;15267;47.838;12.128;2023-03-14T15:29:57;2.28;;;1.67;;